sensor_id;sensor_type;location;lat;lon;timestamp;temperature;humidity
54946;DHT22;40846;44.788;20.486;2024-02-04T00:00:34;256.00;2252.80
54946;DHT22;40846;44.788;20.486;2024-02-04T00:03:01;256.20;2252.80
54946;DHT22;40846;44.788;20.486;2024-02-04T00:05:27;256.10;2252.80
54946;DHT22;40846;44.788;20.486;2024-02-04T00:07:52;256.00;2252.80
54946;DHT22;40846;44.788;20.486;2024-02-04T00:10:18;231.30;2252.80
54946;DHT22;40846;44.788;20.486;2024-02-04T00:12:44;231.30;2252.80
54946;DHT22;40846;44.788;20.486;2024-02-04T00:15:10;231.10;2252.80
54946;DHT22;40846;44.788;20.486;2024-02-04T00:17:36;231.00;2252.80
54946;DHT22;40846;44.788;20.486;2024-02-04T00:20:03;256.10;2252.80
54946;DHT22;40846;44.788;20.486;2024-02-04T00:22:31;256.00;2252.80
54946;DHT22;40846;44.788;20.486;2024-02-04T00:24:57;231.20;2252.80
54946;DHT22;40846;44.788;20.486;2024-02-04T00:27:27;256.00;2252.80
54946;DHT22;40846;44.788;20.486;2024-02-04T00:29:53;256.00;2252.80
54946;DHT22;40846;44.788;20.486;2024-02-04T00:32:19;231.30;2252.80
54946;DHT22;40846;44.788;20.486;2024-02-04T00:34:44;256.00;2252.80
54946;DHT22;40846;44.788;20.486;2024-02-04T00:37:10;231.30;2252.80
54946;DHT22;40846;44.788;20.486;2024-02-04T00:39:36;231.10;2252.80
54946;DHT22;40846;44.788;20.486;2024-02-04T00:42:02;231.10;2252.80
54946;DHT22;40846;44.788;20.486;2024-02-04T00:44:27;231.20;2252.80
54946;DHT22;40846;44.788;20.486;2024-02-04T00:46:53;231.20;2252.80
54946;DHT22;40846;44.788;20.486;2024-02-04T00:49:19;231.30;2252.80
54946;DHT22;40846;44.788;20.486;2024-02-04T00:51:44;231.10;2252.80
54946;DHT22;40846;44.788;20.486;2024-02-04T00:54:10;231.10;2252.80
54946;DHT22;40846;44.788;20.486;2024-02-04T00:56:36;231.10;2252.80
54946;DHT22;40846;44.788;20.486;2024-02-04T00:59:03;231.10;2252.80
54946;DHT22;40846;44.788;20.486;2024-02-04T01:01:29;231.10;2252.80
54946;DHT22;40846;44.788;20.486;2024-02-04T01:03:55;231.30;2252.80
54946;DHT22;40846;44.788;20.486;2024-02-04T01:06:20;231.10;2252.80
54946;DHT22;40846;44.788;20.486;2024-02-04T01:08:46;231.10;2252.80
54946;DHT22;40846;44.788;20.486;2024-02-04T01:11:12;231.30;2252.80
54946;DHT22;40846;44.788;20.486;2024-02-04T01:13:38;231.20;2252.80
54946;DHT22;40846;44.788;20.486;2024-02-04T01:16:04;231.10;2252.80
54946;DHT22;40846;44.788;20.486;2024-02-04T01:18:30;231.10;2252.80
54946;DHT22;40846;44.788;20.486;2024-02-04T01:20:57;231.00;2252.80
54946;DHT22;40846;44.788;20.486;2024-02-04T01:23:23;231.00;2252.80
54946;DHT22;40846;44.788;20.486;2024-02-04T01:25:49;231.10;2252.80
54946;DHT22;40846;44.788;20.486;2024-02-04T01:28:15;231.20;2252.80
54946;DHT22;40846;44.788;20.486;2024-02-04T01:30:41;231.30;2252.80
54946;DHT22;40846;44.788;20.486;2024-02-04T01:33:06;231.30;2252.80
54946;DHT22;40846;44.788;20.486;2024-02-04T01:35:32;256.80;2252.80
54946;DHT22;40846;44.788;20.486;2024-02-04T01:37:58;256.00;2252.80
54946;DHT22;40846;44.788;20.486;2024-02-04T01:40:24;231.30;2252.80
54946;DHT22;40846;44.788;20.486;2024-02-04T01:42:49;256.20;2252.80
54946;DHT22;40846;44.788;20.486;2024-02-04T01:45:15;256.10;2252.80
54946;DHT22;40846;44.788;20.486;2024-02-04T01:47:41;256.20;2252.80
54946;DHT22;40846;44.788;20.486;2024-02-04T01:50:08;256.10;2252.80
54946;DHT22;40846;44.788;20.486;2024-02-04T01:52:37;256.00;2252.80
54946;DHT22;40846;44.788;20.486;2024-02-04T01:55:05;256.00;2252.80
54946;DHT22;40846;44.788;20.486;2024-02-04T01:57:32;256.40;2252.80
54946;DHT22;40846;44.788;20.486;2024-02-04T02:00:00;256.20;2252.80
54946;DHT22;40846;44.788;20.486;2024-02-04T02:02:26;256.10;2252.80
54946;DHT22;40846;44.788;20.486;2024-02-04T02:04:52;231.30;2252.80
54946;DHT22;40846;44.788;20.486;2024-02-04T02:07:18;231.30;2252.80
54946;DHT22;40846;44.788;20.486;2024-02-04T02:09:47;231.30;2252.80
54946;DHT22;40846;44.788;20.486;2024-02-04T02:12:29;231.30;2252.80
54946;DHT22;40846;44.788;20.486;2024-02-04T02:15:18;256.00;2252.80
54946;DHT22;40846;44.788;20.486;2024-02-04T02:18:04;256.00;2252.80
54946;DHT22;40846;44.788;20.486;2024-02-04T03:07:58;256.50;2252.80
54946;DHT22;40846;44.788;20.486;2024-02-04T03:10:23;256.10;2252.80
54946;DHT22;40846;44.788;20.486;2024-02-04T03:12:49;256.10;2252.80
54946;DHT22;40846;44.788;20.486;2024-02-04T03:15:15;256.10;2252.80
54946;DHT22;40846;44.788;20.486;2024-02-04T03:17:42;256.10;2252.80
54946;DHT22;40846;44.788;20.486;2024-02-04T03:20:09;256.30;2252.80
54946;DHT22;40846;44.788;20.486;2024-02-04T03:22:35;256.00;2252.80
54946;DHT22;40846;44.788;20.486;2024-02-04T03:25:01;256.10;2252.80
54946;DHT22;40846;44.788;20.486;2024-02-04T03:27:27;231.30;2252.80
54946;DHT22;40846;44.788;20.486;2024-02-04T03:29:54;256.00;2252.80
54946;DHT22;40846;44.788;20.486;2024-02-04T03:32:19;256.00;2252.80
54946;DHT22;40846;44.788;20.486;2024-02-04T03:34:45;231.30;2252.80
54946;DHT22;40846;44.788;20.486;2024-02-04T03:37:11;231.30;2252.80
54946;DHT22;40846;44.788;20.486;2024-02-04T03:39:37;256.00;2252.80
54946;DHT22;40846;44.788;20.486;2024-02-04T03:42:02;256.00;2252.80
54946;DHT22;40846;44.788;20.486;2024-02-04T03:44:28;231.30;2252.80
54946;DHT22;40846;44.788;20.486;2024-02-04T03:46:54;231.30;2252.80
54946;DHT22;40846;44.788;20.486;2024-02-04T03:49:21;256.00;2252.80
54946;DHT22;40846;44.788;20.486;2024-02-04T03:51:47;256.00;2252.80
54946;DHT22;40846;44.788;20.486;2024-02-04T03:54:13;256.10;2252.80
54946;DHT22;40846;44.788;20.486;2024-02-04T03:56:39;256.00;2252.80
54946;DHT22;40846;44.788;20.486;2024-02-04T03:59:04;231.20;2252.80
54946;DHT22;40846;44.788;20.486;2024-02-04T04:01:32;231.20;2252.80
54946;DHT22;40846;44.788;20.486;2024-02-04T04:03:57;231.20;2252.80
54946;DHT22;40846;44.788;20.486;2024-02-04T04:06:23;231.10;2252.80
54946;DHT22;40846;44.788;20.486;2024-02-04T04:08:49;231.10;2252.80
54946;DHT22;40846;44.788;20.486;2024-02-04T04:11:15;231.30;2252.80
54946;DHT22;40846;44.788;20.486;2024-02-04T04:13:40;256.00;2252.80
54946;DHT22;40846;44.788;20.486;2024-02-04T04:16:06;231.20;2252.80
54946;DHT22;40846;44.788;20.486;2024-02-04T04:18:32;231.30;2252.80
54946;DHT22;40846;44.788;20.486;2024-02-04T04:20:58;231.30;2252.80
54946;DHT22;40846;44.788;20.486;2024-02-04T04:23:24;231.20;2252.80
54946;DHT22;40846;44.788;20.486;2024-02-04T04:25:50;231.20;2252.80
54946;DHT22;40846;44.788;20.486;2024-02-04T04:28:16;231.30;2252.80
54946;DHT22;40846;44.788;20.486;2024-02-04T04:30:41;231.30;2252.80
54946;DHT22;40846;44.788;20.486;2024-02-04T04:33:07;231.30;2252.80
54946;DHT22;40846;44.788;20.486;2024-02-04T04:35:33;231.00;2252.80
54946;DHT22;40846;44.788;20.486;2024-02-04T04:37:59;231.20;2252.80
54946;DHT22;40846;44.788;20.486;2024-02-04T04:40:25;231.10;2252.80
54946;DHT22;40846;44.788;20.486;2024-02-04T04:42:51;231.30;2252.80
54946;DHT22;40846;44.788;20.486;2024-02-04T04:45:17;231.30;2252.80
54946;DHT22;40846;44.788;20.486;2024-02-04T04:47:42;231.20;2252.80
54946;DHT22;40846;44.788;20.486;2024-02-04T04:50:08;231.20;2252.80
54946;DHT22;40846;44.788;20.486;2024-02-04T04:52:34;231.00;2252.80
54946;DHT22;40846;44.788;20.486;2024-02-04T04:55:00;231.10;2252.80
54946;DHT22;40846;44.788;20.486;2024-02-04T04:57:26;231.10;2252.80
54946;DHT22;40846;44.788;20.486;2024-02-04T04:59:51;230.60;2252.80
54946;DHT22;40846;44.788;20.486;2024-02-04T05:02:17;231.00;2252.80
54946;DHT22;40846;44.788;20.486;2024-02-04T05:04:44;231.10;2252.80
54946;DHT22;40846;44.788;20.486;2024-02-04T05:07:13;231.10;2252.80
54946;DHT22;40846;44.788;20.486;2024-02-04T05:09:39;231.20;2252.80
54946;DHT22;40846;44.788;20.486;2024-02-04T05:12:06;231.10;2252.80
54946;DHT22;40846;44.788;20.486;2024-02-04T05:14:31;231.30;2252.80
54946;DHT22;40846;44.788;20.486;2024-02-04T05:16:57;256.00;2252.80
54946;DHT22;40846;44.788;20.486;2024-02-04T05:19:23;231.10;2252.80
54946;DHT22;40846;44.788;20.486;2024-02-04T05:21:48;231.20;2252.80
54946;DHT22;40846;44.788;20.486;2024-02-04T05:24:14;231.20;2252.80
54946;DHT22;40846;44.788;20.486;2024-02-04T05:26:40;231.30;2252.80
54946;DHT22;40846;44.788;20.486;2024-02-04T05:29:06;256.10;2252.80
54946;DHT22;40846;44.788;20.486;2024-02-04T05:31:31;256.00;2252.80
54946;DHT22;40846;44.788;20.486;2024-02-04T05:33:57;256.10;2252.80
54946;DHT22;40846;44.788;20.486;2024-02-04T05:36:23;231.30;2252.80
54946;DHT22;40846;44.788;20.486;2024-02-04T05:38:49;256.10;2252.80
54946;DHT22;40846;44.788;20.486;2024-02-04T05:41:14;256.10;2252.80
54946;DHT22;40846;44.788;20.486;2024-02-04T05:43:40;256.10;2252.80
54946;DHT22;40846;44.788;20.486;2024-02-04T05:46:06;256.20;2252.80
54946;DHT22;40846;44.788;20.486;2024-02-04T05:48:32;256.10;2252.80
54946;DHT22;40846;44.788;20.486;2024-02-04T05:50:57;256.00;2252.80
54946;DHT22;40846;44.788;20.486;2024-02-04T05:53:24;256.20;2252.80
54946;DHT22;40846;44.788;20.486;2024-02-04T05:55:50;256.20;2252.80
54946;DHT22;40846;44.788;20.486;2024-02-04T05:58:16;256.10;2252.80
54946;DHT22;40846;44.788;20.486;2024-02-04T06:00:41;256.50;2252.80
54946;DHT22;40846;44.788;20.486;2024-02-04T06:03:07;256.30;2252.80
54946;DHT22;40846;44.788;20.486;2024-02-04T06:05:33;256.30;2252.80
54946;DHT22;40846;44.788;20.486;2024-02-04T06:07:59;256.30;2252.80
54946;DHT22;40846;44.788;20.486;2024-02-04T06:10:24;256.20;2252.80
54946;DHT22;40846;44.788;20.486;2024-02-04T06:12:50;256.20;2252.80
54946;DHT22;40846;44.788;20.486;2024-02-04T06:15:16;256.20;2252.80
54946;DHT22;40846;44.788;20.486;2024-02-04T06:17:43;256.10;2252.80
54946;DHT22;40846;44.788;20.486;2024-02-04T06:20:09;256.20;2252.80
54946;DHT22;40846;44.788;20.486;2024-02-04T06:22:35;256.30;2252.80
54946;DHT22;40846;44.788;20.486;2024-02-04T06:25:02;256.30;2252.80
54946;DHT22;40846;44.788;20.486;2024-02-04T06:27:29;256.30;2252.80
54946;DHT22;40846;44.788;20.486;2024-02-04T06:29:55;256.40;2252.80
54946;DHT22;40846;44.788;20.486;2024-02-04T06:32:21;256.40;2252.80
54946;DHT22;40846;44.788;20.486;2024-02-04T06:34:47;256.30;2252.80
54946;DHT22;40846;44.788;20.486;2024-02-04T06:37:13;256.20;2252.80
54946;DHT22;40846;44.788;20.486;2024-02-04T06:39:39;256.10;2252.80
54946;DHT22;40846;44.788;20.486;2024-02-04T06:42:04;231.30;2252.80
54946;DHT22;40846;44.788;20.486;2024-02-04T06:44:30;256.00;2252.80
54946;DHT22;40846;44.788;20.486;2024-02-04T06:46:56;256.10;2252.80
54946;DHT22;40846;44.788;20.486;2024-02-04T06:49:22;256.00;2252.80
54946;DHT22;40846;44.788;20.486;2024-02-04T06:51:47;256.00;2252.80
54946;DHT22;40846;44.788;20.486;2024-02-04T06:54:14;256.20;2252.80
54946;DHT22;40846;44.788;20.486;2024-02-04T06:56:40;256.30;2252.80
54946;DHT22;40846;44.788;20.486;2024-02-04T06:59:06;256.30;2252.80
54946;DHT22;40846;44.788;20.486;2024-02-04T07:01:32;231.10;2252.80
54946;DHT22;40846;44.788;20.486;2024-02-04T07:03:58;256.30;2252.80
54946;DHT22;40846;44.788;20.486;2024-02-04T07:06:24;256.40;2252.80
54946;DHT22;40846;44.788;20.486;2024-02-04T07:08:50;256.50;2252.80
54946;DHT22;40846;44.788;20.486;2024-02-04T07:11:16;256.40;2252.80
54946;DHT22;40846;44.788;20.486;2024-02-04T07:13:42;256.50;2252.80
54946;DHT22;40846;44.788;20.486;2024-02-04T07:16:08;256.40;2252.80
54946;DHT22;40846;44.788;20.486;2024-02-04T07:18:34;256.60;2252.80
54946;DHT22;40846;44.788;20.486;2024-02-04T07:20:59;256.60;2252.80
54946;DHT22;40846;44.788;20.486;2024-02-04T07:23:25;256.60;2252.80
54946;DHT22;40846;44.788;20.486;2024-02-04T07:25:51;256.60;2252.80
54946;DHT22;40846;44.788;20.486;2024-02-04T07:28:16;256.60;2252.80
54946;DHT22;40846;44.788;20.486;2024-02-04T07:30:42;256.40;2252.80
54946;DHT22;40846;44.788;20.486;2024-02-04T07:33:08;256.70;2252.80
54946;DHT22;40846;44.788;20.486;2024-02-04T07:35:34;256.50;2252.80
54946;DHT22;40846;44.788;20.486;2024-02-04T07:38:00;256.60;2252.80
54946;DHT22;40846;44.788;20.486;2024-02-04T07:40:26;256.60;2252.80
54946;DHT22;40846;44.788;20.486;2024-02-04T07:42:53;256.60;2252.80
54946;DHT22;40846;44.788;20.486;2024-02-04T07:45:19;256.50;2252.80
54946;DHT22;40846;44.788;20.486;2024-02-04T07:47:45;256.60;2252.80
54946;DHT22;40846;44.788;20.486;2024-02-04T07:50:12;256.70;2252.80
54946;DHT22;40846;44.788;20.486;2024-02-04T07:52:37;256.60;2252.80
54946;DHT22;40846;44.788;20.486;2024-02-04T07:55:03;256.80;2252.80
54946;DHT22;40846;44.788;20.486;2024-02-04T07:57:29;256.80;2252.80
54946;DHT22;40846;44.788;20.486;2024-02-04T07:59:55;281.60;2278.40
54946;DHT22;40846;44.788;20.486;2024-02-04T08:02:21;281.70;2278.40
54946;DHT22;40846;44.788;20.486;2024-02-04T08:04:46;281.60;2278.40
54946;DHT22;40846;44.788;20.486;2024-02-04T08:07:12;281.70;2278.40
54946;DHT22;40846;44.788;20.486;2024-02-04T08:09:38;256.90;2252.80
54946;DHT22;40846;44.788;20.486;2024-02-04T08:12:04;256.80;2252.80
54946;DHT22;40846;44.788;20.486;2024-02-04T08:14:30;256.90;2252.80
54946;DHT22;40846;44.788;20.486;2024-02-04T08:16:56;256.90;2252.80
54946;DHT22;40846;44.788;20.486;2024-02-04T08:19:21;256.90;2252.80
54946;DHT22;40846;44.788;20.486;2024-02-04T08:21:47;256.90;2252.80
54946;DHT22;40846;44.788;20.486;2024-02-04T08:24:13;256.80;2252.80
54946;DHT22;40846;44.788;20.486;2024-02-04T08:26:39;256.80;2252.80
54946;DHT22;40846;44.788;20.486;2024-02-04T08:29:05;256.90;2252.80
54946;DHT22;40846;44.788;20.486;2024-02-04T08:36:29;307.50;2304.00
54946;DHT22;40846;44.788;20.486;2024-02-04T08:38:56;307.80;2304.00
54946;DHT22;40846;44.788;20.486;2024-02-04T08:46:14;358.80;2329.60
54946;DHT22;40846;44.788;20.486;2024-02-04T08:51:13;359.20;2329.60
54946;DHT22;40846;44.788;20.486;2024-02-04T08:53:39;358.90;2329.60
54946;DHT22;40846;44.788;20.486;2024-02-04T08:58:36;409.70;2304.00
54946;DHT22;40846;44.788;20.486;2024-02-04T09:01:05;461.30;1971.20
54946;DHT22;40846;44.788;20.486;2024-02-04T09:03:31;563.30;1715.20
54946;DHT22;40846;44.788;20.486;2024-02-04T09:05:58;666.20;1280.00
54946;DHT22;40846;44.788;20.486;2024-02-04T09:08:24;640.30;1228.80
54946;DHT22;40846;44.788;20.486;2024-02-04T09:10:50;614.40;1305.60
54946;DHT22;40846;44.788;20.486;2024-02-04T09:13:15;615.00;1280.00
54946;DHT22;40846;44.788;20.486;2024-02-04T09:15:41;743.00;1075.20
54946;DHT22;40846;44.788;20.486;2024-02-04T09:18:07;768.20;1024.00
54946;DHT22;40846;44.788;20.486;2024-02-04T09:20:33;691.20;1075.20
54946;DHT22;40846;44.788;20.486;2024-02-04T09:22:59;640.10;1152.00
54946;DHT22;40846;44.788;20.486;2024-02-04T09:25:25;666.50;1126.40
54946;DHT22;40846;44.788;20.486;2024-02-04T09:27:51;743.20;1049.60
54946;DHT22;40846;44.788;20.486;2024-02-04T09:30:17;844.90;921.60
54946;DHT22;40846;44.788;20.486;2024-02-04T09:32:42;896.60;870.40
54946;DHT22;40846;44.788;20.486;2024-02-04T09:35:08;947.70;819.20
54946;DHT22;40846;44.788;20.486;2024-02-04T09:37:37;973.40;768.00
54946;DHT22;40846;44.788;20.486;2024-02-04T09:40:03;998.80;768.00
54946;DHT22;40846;44.788;20.486;2024-02-04T09:42:30;999.00;742.40
54946;DHT22;40846;44.788;20.486;2024-02-04T09:44:57;1024.30;716.80
54946;DHT22;40846;44.788;20.486;2024-02-04T09:47:23;1049.80;716.80
54946;DHT22;40846;44.788;20.486;2024-02-04T09:49:48;1049.80;691.20
54946;DHT22;40846;44.788;20.486;2024-02-04T09:52:18;1024.30;691.20
54946;DHT22;40846;44.788;20.486;2024-02-04T09:54:50;948.00;716.80
54946;DHT22;40846;44.788;20.486;2024-02-04T09:57:16;947.60;742.40
54946;DHT22;40846;44.788;20.486;2024-02-04T09:59:44;947.40;742.40
54946;DHT22;40846;44.788;20.486;2024-02-04T10:02:10;922.20;768.00
54946;DHT22;40846;44.788;20.486;2024-02-04T10:04:36;896.90;768.00
54946;DHT22;40846;44.788;20.486;2024-02-04T10:07:02;896.60;768.00
54946;DHT22;40846;44.788;20.486;2024-02-04T10:09:28;845.10;844.80
54946;DHT22;40846;44.788;20.486;2024-02-04T10:11:56;845.10;870.40
54946;DHT22;40846;44.788;20.486;2024-02-04T10:14:22;871.00;819.20
54946;DHT22;40846;44.788;20.486;2024-02-04T10:16:48;845.60;819.20
54946;DHT22;40846;44.788;20.486;2024-02-04T10:19:14;845.40;844.80
54946;DHT22;40846;44.788;20.486;2024-02-04T10:21:40;819.30;844.80
54946;DHT22;40846;44.788;20.486;2024-02-04T10:24:06;768.80;870.40
54946;DHT22;40846;44.788;20.486;2024-02-04T10:26:33;819.30;844.80
54946;DHT22;40846;44.788;20.486;2024-02-04T10:29:03;819.80;844.80
54946;DHT22;40846;44.788;20.486;2024-02-04T10:31:29;794.40;844.80
54946;DHT22;40846;44.788;20.486;2024-02-04T10:33:55;793.80;870.40
54946;DHT22;40846;44.788;20.486;2024-02-04T10:36:22;743.20;896.00
54946;DHT22;40846;44.788;20.486;2024-02-04T10:38:47;717.40;921.60
54946;DHT22;40846;44.788;20.486;2024-02-04T10:41:15;742.50;947.20
54946;DHT22;40846;44.788;20.486;2024-02-04T10:43:43;742.70;947.20
54946;DHT22;40846;44.788;20.486;2024-02-04T10:46:17;768.10;896.00
54946;DHT22;40846;44.788;20.486;2024-02-04T10:48:43;742.60;947.20
54946;DHT22;40846;44.788;20.486;2024-02-04T10:51:13;691.80;947.20
54946;DHT22;40846;44.788;20.486;2024-02-04T10:53:43;691.40;998.40
54946;DHT22;40846;44.788;20.486;2024-02-04T10:56:25;640.40;1049.60
54946;DHT22;40846;44.788;20.486;2024-02-04T10:58:52;614.50;1126.40
54946;DHT22;40846;44.788;20.486;2024-02-04T11:01:19;564.10;1177.60
54946;DHT22;40846;44.788;20.486;2024-02-04T11:03:46;563.20;1254.40
54946;DHT22;40846;44.788;20.486;2024-02-04T11:06:13;537.90;1280.00
54946;DHT22;40846;44.788;20.486;2024-02-04T11:08:39;512.70;1305.60
54946;DHT22;40846;44.788;20.486;2024-02-04T11:11:05;487.30;1331.20
54946;DHT22;40846;44.788;20.486;2024-02-04T11:13:31;487.00;1356.80
54946;DHT22;40846;44.788;20.486;2024-02-04T11:16:00;486.70;1382.40
54946;DHT22;40846;44.788;20.486;2024-02-04T11:26:18;461.20;1484.80
54946;DHT22;40846;44.788;20.486;2024-02-04T11:28:44;461.00;1510.40
54946;DHT22;40846;44.788;20.486;2024-02-04T11:31:14;436.10;1510.40
54946;DHT22;40846;44.788;20.486;2024-02-04T11:33:41;436.00;1510.40
54946;DHT22;40846;44.788;20.486;2024-02-04T11:36:07;436.00;1536.00
54946;DHT22;40846;44.788;20.486;2024-02-04T11:38:37;435.90;1536.00
54946;DHT22;40846;44.788;20.486;2024-02-04T11:41:04;435.90;1536.00
54946;DHT22;40846;44.788;20.486;2024-02-04T11:43:32;435.80;1561.60
54946;DHT22;40846;44.788;20.486;2024-02-04T11:45:59;435.60;1536.00
54946;DHT22;40846;44.788;20.486;2024-02-04T11:48:30;435.50;1561.60
54946;DHT22;40846;44.788;20.486;2024-02-04T11:50:58;435.50;1561.60
54946;DHT22;40846;44.788;20.486;2024-02-04T11:53:25;435.60;1561.60
54946;DHT22;40846;44.788;20.486;2024-02-04T11:55:54;435.60;1561.60
54946;DHT22;40846;44.788;20.486;2024-02-04T11:58:20;435.90;1536.00
54946;DHT22;40846;44.788;20.486;2024-02-04T12:00:46;435.80;1536.00
54946;DHT22;40846;44.788;20.486;2024-02-04T12:03:12;436.00;1536.00
54946;DHT22;40846;44.788;20.486;2024-02-04T12:05:38;435.90;1561.60
54946;DHT22;40846;44.788;20.486;2024-02-04T12:08:06;436.00;1561.60
54946;DHT22;40846;44.788;20.486;2024-02-04T12:10:33;460.80;1561.60
54946;DHT22;40846;44.788;20.486;2024-02-04T12:13:02;460.80;1561.60
54946;DHT22;40846;44.788;20.486;2024-02-04T12:15:29;460.90;1561.60
54946;DHT22;40846;44.788;20.486;2024-02-04T12:18:11;435.90;1536.00
54946;DHT22;40846;44.788;20.486;2024-02-04T12:20:38;435.80;1561.60
54946;DHT22;40846;44.788;20.486;2024-02-04T12:23:07;435.80;1561.60
54946;DHT22;40846;44.788;20.486;2024-02-04T12:25:34;435.60;1587.20
54946;DHT22;40846;44.788;20.486;2024-02-04T12:28:02;435.80;1587.20
54946;DHT22;40846;44.788;20.486;2024-02-04T12:30:29;435.60;1612.80
54946;DHT22;40846;44.788;20.486;2024-02-04T12:32:59;435.50;1612.80
54946;DHT22;40846;44.788;20.486;2024-02-04T12:35:28;435.20;1638.40
54946;DHT22;40846;44.788;20.486;2024-02-04T12:37:56;435.20;1638.40
54946;DHT22;40846;44.788;20.486;2024-02-04T12:40:30;435.20;1638.40
54946;DHT22;40846;44.788;20.486;2024-02-04T12:42:56;435.30;1664.00
54946;DHT22;40846;44.788;20.486;2024-02-04T12:45:23;435.30;1664.00
54946;DHT22;40846;44.788;20.486;2024-02-04T12:47:53;435.30;1664.00
54946;DHT22;40846;44.788;20.486;2024-02-04T12:50:20;435.50;1664.00
54946;DHT22;40846;44.788;20.486;2024-02-04T12:52:50;435.30;1664.00
54946;DHT22;40846;44.788;20.486;2024-02-04T12:55:25;435.30;1689.60
54946;DHT22;40846;44.788;20.486;2024-02-04T13:00:34;435.30;1689.60
54946;DHT22;40846;44.788;20.486;2024-02-04T13:03:00;435.40;1689.60
54946;DHT22;40846;44.788;20.486;2024-02-04T13:05:27;435.20;1715.20
54946;DHT22;40846;44.788;20.486;2024-02-04T13:07:56;435.20;1715.20
54946;DHT22;40846;44.788;20.486;2024-02-04T13:10:26;435.20;1715.20
54946;DHT22;40846;44.788;20.486;2024-02-04T13:13:03;435.30;1715.20
54946;DHT22;40846;44.788;20.486;2024-02-04T13:15:32;435.50;1715.20
54946;DHT22;40846;44.788;20.486;2024-02-04T13:17:58;435.40;1715.20
54946;DHT22;40846;44.788;20.486;2024-02-04T13:20:25;435.50;1715.20
54946;DHT22;40846;44.788;20.486;2024-02-04T13:22:51;435.50;1715.20
54946;DHT22;40846;44.788;20.486;2024-02-04T13:25:20;435.60;1715.20
54946;DHT22;40846;44.788;20.486;2024-02-04T13:27:47;435.40;1715.20
54946;DHT22;40846;44.788;20.486;2024-02-04T13:30:13;435.20;1740.80
54946;DHT22;40846;44.788;20.486;2024-02-04T13:32:39;410.50;1740.80
54946;DHT22;40846;44.788;20.486;2024-02-04T13:35:06;435.20;1766.40
54946;DHT22;40846;44.788;20.486;2024-02-04T13:37:36;435.20;1766.40
54946;DHT22;40846;44.788;20.486;2024-02-04T13:40:03;410.30;1792.00
54946;DHT22;40846;44.788;20.486;2024-02-04T13:42:31;410.20;1817.60
54946;DHT22;40846;44.788;20.486;2024-02-04T13:44:57;410.00;1817.60
54946;DHT22;40846;44.788;20.486;2024-02-04T13:47:23;410.20;1817.60
54946;DHT22;40846;44.788;20.486;2024-02-04T13:49:49;410.20;1817.60
54946;DHT22;40846;44.788;20.486;2024-02-04T13:52:14;410.20;1843.20
54946;DHT22;40846;44.788;20.486;2024-02-04T13:54:41;410.10;1843.20
54946;DHT22;40846;44.788;20.486;2024-02-04T13:57:06;410.10;1868.80
54946;DHT22;40846;44.788;20.486;2024-02-04T13:59:32;409.90;1868.80
54946;DHT22;40846;44.788;20.486;2024-02-04T14:01:58;410.00;1868.80
54946;DHT22;40846;44.788;20.486;2024-02-04T14:04:24;410.00;1868.80
54946;DHT22;40846;44.788;20.486;2024-02-04T14:06:49;410.00;1868.80
54946;DHT22;40846;44.788;20.486;2024-02-04T14:09:15;409.90;1894.40
54946;DHT22;40846;44.788;20.486;2024-02-04T14:11:41;409.90;1894.40
54946;DHT22;40846;44.788;20.486;2024-02-04T14:14:07;410.00;1894.40
54946;DHT22;40846;44.788;20.486;2024-02-04T14:16:33;410.00;1894.40
54946;DHT22;40846;44.788;20.486;2024-02-04T14:18:59;410.00;1894.40
54946;DHT22;40846;44.788;20.486;2024-02-04T14:21:24;409.90;1920.00
54946;DHT22;40846;44.788;20.486;2024-02-04T14:23:50;409.90;1920.00
54946;DHT22;40846;44.788;20.486;2024-02-04T14:26:20;409.90;1920.00
54946;DHT22;40846;44.788;20.486;2024-02-04T14:28:46;409.80;1920.00
54946;DHT22;40846;44.788;20.486;2024-02-04T14:31:12;435.20;1945.60
54946;DHT22;40846;44.788;20.486;2024-02-04T14:33:38;409.70;1945.60
54946;DHT22;40846;44.788;20.486;2024-02-04T14:36:06;409.90;1945.60
54946;DHT22;40846;44.788;20.486;2024-02-04T14:38:32;384.90;1945.60
54946;DHT22;40846;44.788;20.486;2024-02-04T14:40:58;409.70;1971.20
54946;DHT22;40846;44.788;20.486;2024-02-04T14:43:27;409.80;1971.20
54946;DHT22;40846;44.788;20.486;2024-02-04T14:45:53;409.70;1971.20
54946;DHT22;40846;44.788;20.486;2024-02-04T14:48:18;409.70;1971.20
54946;DHT22;40846;44.788;20.486;2024-02-04T14:50:44;409.80;1971.20
54946;DHT22;40846;44.788;20.486;2024-02-04T14:53:10;409.90;1971.20
54946;DHT22;40846;44.788;20.486;2024-02-04T14:55:36;409.80;1971.20
54946;DHT22;40846;44.788;20.486;2024-02-04T14:58:01;409.90;1996.80
54946;DHT22;40846;44.788;20.486;2024-02-04T15:00:27;409.80;1971.20
54946;DHT22;40846;44.788;20.486;2024-02-04T15:02:56;409.70;1971.20
54946;DHT22;40846;44.788;20.486;2024-02-04T15:05:22;409.70;1971.20
54946;DHT22;40846;44.788;20.486;2024-02-04T15:07:49;409.70;1971.20
54946;DHT22;40846;44.788;20.486;2024-02-04T15:10:17;409.70;1971.20
54946;DHT22;40846;44.788;20.486;2024-02-04T15:12:43;409.90;1996.80
54946;DHT22;40846;44.788;20.486;2024-02-04T15:15:09;409.80;1996.80
54946;DHT22;40846;44.788;20.486;2024-02-04T15:17:36;409.80;1996.80
54946;DHT22;40846;44.788;20.486;2024-02-04T15:20:02;384.80;1971.20
54946;DHT22;40846;44.788;20.486;2024-02-04T15:22:29;384.90;1996.80
54946;DHT22;40846;44.788;20.486;2024-02-04T15:24:56;384.80;1996.80
54946;DHT22;40846;44.788;20.486;2024-02-04T15:27:24;384.70;2022.40
54946;DHT22;40846;44.788;20.486;2024-02-04T15:29:52;384.60;2022.40
54946;DHT22;40846;44.788;20.486;2024-02-04T15:32:21;384.50;2048.00
54946;DHT22;40846;44.788;20.486;2024-02-04T15:34:48;384.60;2048.00
54946;DHT22;40846;44.788;20.486;2024-02-04T15:37:14;384.50;2048.00
54946;DHT22;40846;44.788;20.486;2024-02-04T15:39:41;384.40;2073.60
54946;DHT22;40846;44.788;20.486;2024-02-04T15:42:09;384.50;2073.60
54946;DHT22;40846;44.788;20.486;2024-02-04T15:44:34;384.30;2099.20